createdAt,value
2019-02-16T00:00:35.532Z,60.17
2019-02-16T00:01:35.488Z,59.55
2019-02-16T00:02:35.499Z,59.75
2019-02-16T00:03:36.223Z,60.27
2019-02-16T00:04:35.457Z,60.58
2019-02-16T00:05:35.442Z,59.86
2019-02-16T00:06:35.474Z,60.30
2019-02-16T00:07:34.420Z,60.41
2019-02-16T00:08:35.409Z,60.82
2019-02-16T00:09:34.437Z,59.89
2019-02-16T00:10:35.384Z,60.41
2019-02-16T00:11:34.380Z,60.30
2019-02-16T00:12:35.364Z,60.41
2019-02-16T00:13:35.357Z,60.51
2019-02-16T00:14:34.350Z,60.20
2019-02-16T00:15:35.379Z,60.41
2019-02-16T00:16:35.329Z,60.41
2019-02-16T00:17:35.312Z,60.10
2019-02-16T00:18:35.303Z,60.30
2019-02-16T00:19:35.298Z,60.10
2019-02-16T00:20:35.284Z,60.20
2019-02-16T00:21:35.320Z,60.17
2019-02-16T00:22:34.260Z,59.99
2019-02-16T00:24:34.240Z,60.41
2019-02-16T00:25:35.258Z,60.20
2019-02-16T00:26:35.246Z,60.41
2019-02-16T00:27:35.202Z,60.43
2019-02-16T00:28:35.202Z,60.82
2019-02-16T00:29:35.185Z,61.68
2019-02-16T00:30:34.171Z,61.16
2019-02-16T00:31:35.178Z,61.16
2019-02-16T00:32:35.176Z,61.05
2019-02-16T00:33:35.142Z,60.74
2019-02-16T00:34:35.120Z,60.64
2019-02-16T00:35:34.129Z,60.85
2019-02-16T00:36:35.112Z,60.64
2019-02-16T00:37:35.099Z,60.74
2019-02-16T00:38:35.091Z,61.05
2019-02-16T00:39:35.082Z,60.74
2019-02-16T00:40:35.065Z,60.95
2019-02-16T00:41:35.050Z,61.13
2019-02-16T00:42:35.040Z,61.16
2019-02-16T00:43:35.026Z,60.95
2019-02-16T00:44:35.061Z,60.43
2019-02-16T00:45:37.496Z,61.91
2019-02-16T00:46:35.002Z,62.12
2019-02-16T00:47:34.982Z,62.12
2019-02-16T00:48:34.972Z,62.43
2019-02-16T00:49:33.974Z,62.23
2019-02-16T00:50:33.957Z,61.91
2019-02-16T00:51:34.974Z,62.64
2019-02-16T00:52:34.932Z,62.85
2019-02-16T00:53:34.924Z,62.57
2019-02-16T00:54:34.926Z,62.88
2019-02-16T00:55:35.542Z,63.06
2019-02-16T00:56:34.896Z,62.02
2019-02-16T00:57:33.880Z,62.23
2019-02-16T00:58:34.867Z,61.91
2019-02-16T00:59:33.864Z,61.60
2019-02-16T01:00:33.886Z,61.71
2019-02-16T01:01:37.492Z,60.77
2019-02-16T01:02:34.820Z,61.36
2019-02-16T01:03:33.809Z,61.29
2019-02-16T01:04:34.804Z,61.16
2019-02-16T01:05:34.796Z,60.74
2019-02-16T01:06:34.784Z,60.74
2019-02-16T01:07:33.764Z,61.08
2019-02-16T01:08:33.758Z,60.85
2019-02-16T01:09:34.783Z,61.71
2019-02-16T01:10:34.740Z,61.81
2019-02-16T01:11:33.726Z,61.91
2019-02-16T01:12:33.714Z,62.12
2019-02-16T01:13:33.706Z,62.23
2019-02-16T01:14:34.702Z,62.02
2019-02-16T01:15:34.715Z,61.60
2019-02-16T01:16:34.674Z,62.12
2019-02-16T01:17:33.667Z,62.12
2019-02-16T01:18:33.653Z,61.81
2019-02-16T01:19:34.636Z,62.12
2019-02-16T01:20:38.487Z,61.91
2019-02-16T01:21:34.612Z,61.91
2019-02-16T01:22:33.608Z,62.33
2019-02-16T01:23:34.594Z,62.54
2019-02-16T01:24:34.577Z,62.12
2019-02-16T01:25:37.484Z,62.15
2019-02-16T01:26:34.565Z,61.71
2019-02-16T01:27:33.557Z,62.26
2019-02-16T01:28:34.538Z,62.43
2019-02-16T01:29:34.531Z,62.23
2019-02-16T01:30:34.533Z,63.37
2019-02-16T01:31:34.549Z,62.43
2019-02-16T01:32:33.513Z,62.15
2019-02-16T01:33:34.494Z,61.71
2019-02-16T01:34:33.485Z,62.05
2019-02-16T01:35:34.479Z,62.12
2019-02-16T01:36:34.481Z,62.02
2019-02-16T01:37:34.462Z,62.43
2019-02-16T01:38:33.445Z,62.74
2019-02-16T01:39:35.979Z,62.88
2019-02-16T01:40:33.424Z,62.57
2019-02-16T01:41:34.432Z,63.71
2019-02-16T01:42:34.402Z,63.40
2019-02-16T01:43:34.394Z,63.32
2019-02-16T01:44:34.380Z,63.73
2019-02-16T01:45:33.354Z,63.50
2019-02-16T01:46:34.386Z,63.32
2019-02-16T01:47:34.344Z,63.63
2019-02-16T01:48:33.333Z,63.71
2019-02-16T01:49:34.361Z,63.19
2019-02-16T01:50:33.300Z,62.57
2019-02-16T01:51:33.300Z,62.77
2019-02-16T01:52:34.288Z,63.09
2019-02-16T01:53:34.280Z,62.88
2019-02-16T01:54:34.262Z,63.19
2019-02-16T01:55:34.294Z,62.77
2019-02-16T01:56:33.287Z,62.98
2019-02-16T01:57:34.230Z,63.09
2019-02-16T01:58:34.227Z,63.19
2019-02-16T01:59:33.218Z,63.19
2019-02-16T02:00:34.203Z,63.50
2019-02-16T02:02:33.202Z,63.71
2019-02-16T02:03:34.167Z,63.19
2019-02-16T02:04:34.156Z,63.81
2019-02-16T02:05:34.146Z,63.60
2019-02-16T02:06:34.146Z,63.19
2019-02-16T02:07:33.158Z,62.46
2019-02-16T02:08:36.975Z,63.29
2019-02-16T02:09:34.973Z,63.57
2019-02-16T02:10:33.093Z,63.40
2019-02-16T02:11:34.082Z,63.40
2019-02-16T02:12:34.115Z,63.40
2019-02-16T02:13:34.057Z,63.71
2019-02-16T02:14:34.066Z,62.98
2019-02-16T02:15:34.048Z,64.43
2019-02-16T02:16:33.032Z,63.71
2019-02-16T02:17:34.030Z,64.36
2019-02-16T02:18:34.045Z,65.29
2019-02-16T02:19:33.994Z,64.87
2019-02-16T02:20:32.984Z,64.46
2019-02-16T02:21:40.979Z,64.77
2019-02-16T02:22:36.479Z,64.67
2019-02-16T02:23:33.951Z,64.80
2019-02-16T02:24:33.970Z,64.77
2019-02-16T02:25:32.938Z,64.77
2019-02-16T02:26:33.926Z,64.56
2019-02-16T02:27:33.904Z,64.67
2019-02-16T02:28:33.897Z,64.36
2019-02-16T02:29:33.891Z,64.77
2019-02-16T02:30:33.901Z,64.98
2019-02-16T02:31:32.890Z,64.36
2019-02-16T02:32:32.863Z,64.36
2019-02-16T02:33:32.846Z,64.67
2019-02-16T02:34:33.846Z,64.56
2019-02-16T02:35:33.836Z,64.39
2019-02-16T02:36:32.811Z,64.39
2019-02-16T02:37:33.812Z,64.36
2019-02-16T02:38:33.792Z,64.49
2019-02-16T02:39:32.813Z,64.59
2019-02-16T02:40:33.770Z,64.39
2019-02-16T02:41:32.763Z,64.80
2019-02-16T02:42:33.750Z,64.28
2019-02-16T02:43:33.739Z,65.11
2019-02-16T02:45:32.710Z,64.98
2019-02-16T02:46:33.702Z,64.90
2019-02-16T02:47:33.710Z,64.04
2019-02-16T02:48:33.674Z,64.25
2019-02-16T02:49:33.672Z,64.67
2019-02-16T02:50:33.696Z,64.36
2019-02-16T02:51:32.662Z,64.59
2019-02-16T02:52:36.461Z,64.56
2019-02-16T02:53:33.626Z,64.67
2019-02-16T02:54:33.616Z,64.36
2019-02-16T02:56:32.639Z,64.87
2019-02-16T02:57:32.584Z,64.56
2019-02-16T02:58:33.578Z,64.56
2019-02-16T02:59:32.570Z,64.87
2019-02-16T03:00:33.557Z,64.77
2019-02-16T03:01:32.541Z,64.56
2019-02-16T03:02:33.572Z,64.87
2019-02-16T03:03:33.518Z,64.56
2019-02-16T03:04:33.519Z,64.49
2019-02-16T03:05:33.494Z,64.90
2019-02-16T03:06:32.488Z,64.28
2019-02-16T03:07:33.488Z,64.80
2019-02-16T03:08:33.468Z,64.80
2019-02-16T03:09:33.458Z,65.32
2019-02-16T03:10:34.113Z,65.01
2019-02-16T03:11:32.452Z,65.42
2019-02-16T03:12:33.457Z,65.63
2019-02-16T03:13:33.409Z,65.53
2019-02-16T03:14:32.409Z,64.80
2019-02-16T03:15:33.390Z,64.90
2019-02-16T03:16:33.378Z,64.80
2019-02-16T03:17:34.004Z,64.39
2019-02-16T03:18:33.364Z,64.46
2019-02-16T03:19:33.350Z,64.56
2019-02-16T03:20:33.335Z,64.56
2019-02-16T03:21:33.330Z,64.67
2019-02-16T03:22:32.342Z,64.77
2019-02-16T03:23:33.352Z,64.77
2019-02-16T03:24:32.293Z,64.77
2019-02-16T03:25:33.288Z,64.67
2019-02-16T03:26:33.266Z,64.67
2019-02-16T03:27:32.268Z,65.08
2019-02-16T03:28:33.249Z,64.77
2019-02-16T03:29:33.279Z,64.56
2019-02-16T03:30:32.229Z,64.77
2019-02-16T03:31:33.218Z,64.56
2019-02-16T03:32:33.254Z,64.36
2019-02-16T03:33:33.193Z,64.12
2019-02-16T03:34:33.186Z,64.36
2019-02-16T03:35:33.170Z,64.77
2019-02-16T03:36:33.159Z,64.33
2019-02-16T03:37:32.147Z,64.33
2019-02-16T03:38:33.169Z,63.73
2019-02-16T03:39:33.122Z,64.33
2019-02-16T03:40:33.120Z,64.36
2019-02-16T03:41:32.109Z,63.92
2019-02-16T03:42:33.100Z,64.25
2019-02-16T03:43:33.089Z,63.94
2019-02-16T03:44:32.126Z,64.56
2019-02-16T03:45:33.062Z,64.77
2019-02-16T03:46:33.052Z,65.08
2019-02-16T03:47:33.039Z,64.67
2019-02-16T03:48:32.028Z,64.46
2019-02-16T03:49:34.936Z,64.46
2019-02-16T03:50:33.032Z,64.77
2019-02-16T03:51:33.003Z,64.98
2019-02-16T03:52:33.006Z,65.84
2019-02-16T03:53:32.983Z,65.63
2019-02-16T03:54:32.972Z,66.15
2019-02-16T03:55:32.962Z,65.84
2019-02-16T03:56:32.945Z,65.94
2019-02-16T03:57:31.952Z,65.84
2019-02-16T03:58:32.920Z,65.94
2019-02-16T03:59:33.483Z,65.87
2019-02-16T04:00:32.907Z,65.53
2019-02-16T04:01:32.890Z,65.84
2019-02-16T04:02:32.884Z,66.71
2019-02-16T04:03:32.440Z,66.50
2019-02-16T04:04:31.863Z,66.71
2019-02-16T04:05:32.866Z,66.57
2019-02-16T04:06:31.847Z,66.71
2019-02-16T04:07:32.830Z,66.39
2019-02-16T04:08:32.839Z,67.12
2019-02-16T04:09:31.804Z,66.81
2019-02-16T04:10:32.790Z,66.81
2019-02-16T04:11:32.786Z,66.81
2019-02-16T04:12:32.768Z,66.81
2019-02-16T04:13:32.762Z,67.12
2019-02-16T04:14:31.783Z,67.22
2019-02-16T04:15:32.740Z,66.81
2019-02-16T04:16:31.721Z,66.91
2019-02-16T04:17:32.736Z,66.91
2019-02-16T04:18:32.703Z,67.15
2019-02-16T04:19:31.684Z,67.33
2019-02-16T04:20:32.707Z,67.12
2019-02-16T04:21:32.661Z,66.81
2019-02-16T04:22:32.672Z,66.67
2019-02-16T04:23:31.643Z,66.39
2019-02-16T04:24:32.642Z,66.57
2019-02-16T04:25:32.652Z,66.57
2019-02-16T04:26:32.620Z,66.36
2019-02-16T04:27:32.598Z,65.63
2019-02-16T04:28:32.584Z,66.88
2019-02-16T04:29:32.577Z,66.50
2019-02-16T04:30:31.606Z,66.57
2019-02-16T04:31:32.572Z,66.36
2019-02-16T04:32:32.550Z,66.39
2019-02-16T04:33:31.545Z,66.57
2019-02-16T04:34:32.522Z,66.67
2019-02-16T04:35:31.969Z,66.57
2019-02-16T04:36:32.510Z,66.57
2019-02-16T04:37:32.490Z,66.47
2019-02-16T04:38:32.482Z,66.36
2019-02-16T04:39:34.421Z,66.36
2019-02-16T04:40:32.492Z,66.57
2019-02-16T04:41:32.451Z,66.47
2019-02-16T04:42:32.446Z,66.57
2019-02-16T04:43:32.433Z,66.47
2019-02-16T04:44:32.414Z,66.57
2019-02-16T04:45:32.438Z,66.67
2019-02-16T04:46:32.396Z,66.57
2019-02-16T04:47:31.385Z,66.57
2019-02-16T04:48:32.368Z,66.57
2019-02-16T04:49:32.361Z,66.57
2019-02-16T04:50:32.351Z,66.57
2019-02-16T04:51:32.376Z,66.99
2019-02-16T04:52:35.083Z,66.47
2019-02-16T04:53:32.324Z,66.57
2019-02-16T04:54:32.301Z,66.36
2019-02-16T04:55:32.310Z,66.36
2019-02-16T04:56:31.284Z,66.36
2019-02-16T04:57:31.305Z,66.47
2019-02-16T04:58:32.256Z,66.67
2019-02-16T04:59:32.252Z,66.57
2019-02-16T05:00:32.241Z,66.67
2019-02-16T05:01:31.239Z,66.57
2019-02-16T05:02:32.240Z,66.57
2019-02-16T05:03:32.206Z,66.99
2019-02-16T05:04:31.202Z,66.47
2019-02-16T05:05:32.196Z,66.57
2019-02-16T05:06:31.170Z,66.36
2019-02-16T05:07:32.188Z,66.36
2019-02-16T05:08:32.913Z,66.25
2019-02-16T05:09:32.142Z,66.57
2019-02-16T05:10:32.130Z,66.88
2019-02-16T05:11:32.130Z,66.78
2019-02-16T05:12:31.113Z,66.99
2019-02-16T05:13:31.126Z,66.81
2019-02-16T05:14:32.090Z,67.50
2019-02-16T05:15:31.099Z,67.22
2019-02-16T05:16:32.128Z,67.50
2019-02-16T05:17:32.054Z,67.12
2019-02-16T05:18:32.043Z,67.19
2019-02-16T05:19:32.042Z,66.99
2019-02-16T05:20:32.026Z,66.78
2019-02-16T05:21:32.064Z,66.96
2019-02-16T05:22:32.005Z,67.09
2019-02-16T05:23:31.990Z,67.09
2019-02-16T05:24:30.981Z,67.19
2019-02-16T05:25:31.974Z,67.61
2019-02-16T05:26:31.954Z,67.50
2019-02-16T05:27:30.976Z,68.13
2019-02-16T05:28:31.937Z,67.74
2019-02-16T05:29:31.928Z,67.61
2019-02-16T05:30:31.916Z,67.50
2019-02-16T05:31:30.910Z,67.61
2019-02-16T05:32:33.442Z,66.67
2019-02-16T05:33:33.401Z,67.61
2019-02-16T05:34:30.877Z,67.19
2019-02-16T05:35:31.864Z,67.40
2019-02-16T05:36:31.852Z,67.50
2019-02-16T05:37:30.844Z,66.88
2019-02-16T05:38:31.862Z,66.78
2019-02-16T05:39:31.815Z,67.74
2019-02-16T05:40:31.803Z,68.13
2019-02-16T05:41:30.802Z,67.64
2019-02-16T05:42:30.816Z,67.61
2019-02-16T05:43:33.394Z,68.16
2019-02-16T05:44:31.761Z,67.43
2019-02-16T05:45:30.790Z,67.54
2019-02-16T05:46:30.741Z,67.12
2019-02-16T05:47:30.733Z,67.92
2019-02-16T05:48:31.724Z,66.78
2019-02-16T05:49:31.709Z,67.30
2019-02-16T05:50:31.750Z,66.88
2019-02-16T05:51:31.686Z,66.81
2019-02-16T05:52:31.707Z,66.88
2019-02-16T05:53:31.673Z,67.30
2019-02-16T05:54:31.666Z,67.40
2019-02-16T05:55:31.811Z,67.82
2019-02-16T05:57:30.617Z,66.78
2019-02-16T05:58:31.610Z,66.88
2019-02-16T05:59:31.601Z,67.19
2019-02-16T06:00:31.609Z,67.30
2019-02-16T06:01:32.440Z,67.30
2019-02-16T06:02:31.567Z,66.78
2019-02-16T06:03:31.560Z,66.78
2019-02-16T06:04:31.542Z,66.99
2019-02-16T06:05:31.534Z,67.71
2019-02-16T06:06:31.540Z,67.02
2019-02-16T06:07:31.543Z,67.74
2019-02-16T06:08:31.500Z,67.82
2019-02-16T06:09:30.494Z,67.64
2019-02-16T06:10:30.488Z,67.82
2019-02-16T06:11:31.474Z,68.02
2019-02-16T06:12:30.461Z,67.74
2019-02-16T06:13:31.474Z,67.50
2019-02-16T06:14:30.436Z,67.50
2019-02-16T06:15:31.478Z,68.13
2019-02-16T06:16:31.417Z,68.13
2019-02-16T06:17:30.410Z,68.02
2019-02-16T06:19:30.383Z,68.26
2019-02-16T06:20:31.370Z,68.37
2019-02-16T06:21:31.392Z,68.78
2019-02-16T06:22:31.350Z,68.68
2019-02-16T06:23:31.347Z,68.47
2019-02-16T06:25:30.363Z,68.37
2019-02-16T06:27:30.323Z,68.78
2019-02-16T06:28:30.289Z,68.37
2019-02-16T06:29:30.281Z,68.78
2019-02-16T06:30:30.265Z,68.57
2019-02-16T06:31:31.254Z,68.88
2019-02-16T06:32:32.878Z,69.40
2019-02-16T06:33:31.264Z,69.20
2019-02-16T06:34:32.429Z,68.99
2019-02-16T06:35:32.878Z,68.78
2019-02-16T06:36:31.206Z,69.48
2019-02-16T06:37:31.184Z,69.37
2019-02-16T06:38:31.181Z,68.54
2019-02-16T06:39:31.170Z,68.47
2019-02-16T06:40:32.920Z,69.17
2019-02-16T06:41:31.144Z,68.99
2019-02-16T06:42:31.130Z,69.09
2019-02-16T06:43:31.879Z,69.37
2019-02-16T06:44:30.108Z,69.61
2019-02-16T06:45:31.105Z,69.27
2019-02-16T06:46:31.130Z,69.20
2019-02-16T06:47:31.084Z,69.51
2019-02-16T06:48:30.085Z,70.34
2019-02-16T06:49:30.055Z,70.23
2019-02-16T06:50:36.684Z,69.82
2019-02-16T06:51:31.035Z,70.65
2019-02-16T06:52:31.051Z,70.23
2019-02-16T06:53:31.008Z,70.03
2019-02-16T06:54:30.003Z,70.13
2019-02-16T06:55:31.012Z,70.34
2019-02-16T06:56:30.012Z,70.65
2019-02-16T06:57:33.874Z,70.44
2019-02-16T06:58:29.956Z,70.44
2019-02-16T06:59:30.949Z,70.34
2019-02-16T07:00:30.946Z,70.23
2019-02-16T07:01:30.952Z,70.44
2019-02-16T07:02:29.917Z,70.23
2019-02-16T07:03:30.908Z,70.34
2019-02-16T07:04:29.899Z,70.23
2019-02-16T07:05:29.888Z,70.10
2019-02-16T07:07:29.914Z,70.86
2019-02-16T07:08:30.852Z,70.44
2019-02-16T07:09:30.840Z,70.13
2019-02-16T07:10:30.831Z,70.86
2019-02-16T07:11:30.838Z,70.97
2019-02-16T07:13:29.799Z,70.44
2019-02-16T07:14:33.368Z,70.31
2019-02-16T07:15:30.776Z,70.13
2019-02-16T07:16:31.421Z,70.65
2019-02-16T07:17:30.744Z,70.72
2019-02-16T07:19:32.364Z,70.34
2019-02-16T07:20:29.717Z,70.20
2019-02-16T07:21:29.710Z,70.51
2019-02-16T07:22:29.732Z,70.20
2019-02-16T07:23:30.686Z,70.62
2019-02-16T07:24:30.672Z,69.89
2019-02-16T07:25:30.662Z,70.31
2019-02-16T07:26:30.656Z,70.48
2019-02-16T07:28:29.627Z,69.27
2019-02-16T07:29:29.622Z,70.31
2019-02-16T07:30:30.358Z,69.79
2019-02-16T07:31:30.603Z,70.48
2019-02-16T07:32:30.594Z,70.38
2019-02-16T07:33:32.400Z,70.48
2019-02-16T07:34:30.566Z,70.10
2019-02-16T07:35:30.566Z,70.72
2019-02-16T07:36:30.573Z,70.07
2019-02-16T07:37:29.534Z,70.07
2019-02-16T07:38:30.530Z,70.38
2019-02-16T07:39:29.518Z,70.17
2019-02-16T07:40:29.500Z,70.79
2019-02-16T07:41:30.519Z,70.38
2019-02-16T07:42:30.487Z,70.07
2019-02-16T07:43:29.478Z,70.17
2019-02-16T07:44:30.467Z,70.28
2019-02-16T07:45:29.454Z,70.38
2019-02-16T07:46:29.442Z,70.28
2019-02-16T07:47:30.462Z,70.28
2019-02-16T07:48:29.414Z,70.45
2019-02-16T07:49:30.400Z,69.65
2019-02-16T07:50:30.394Z,69.21
2019-02-16T07:51:30.374Z,69.34
2019-02-16T07:52:29.405Z,69.10
2019-02-16T07:53:31.545Z,69.31
2019-02-16T07:54:32.858Z,69.10
2019-02-16T07:56:29.858Z,69.83
2019-02-16T07:57:30.433Z,69.10
2019-02-16T07:58:30.301Z,69.07
2019-02-16T07:59:30.294Z,69.21
2019-02-16T08:00:30.279Z,69.17
2019-02-16T08:01:30.271Z,68.96
2019-02-16T08:02:30.266Z,68.44
2019-02-16T08:03:30.292Z,68.76
2019-02-16T08:04:30.244Z,68.55
2019-02-16T08:05:30.227Z,68.55
2019-02-16T08:06:29.236Z,68.41
2019-02-16T08:07:29.218Z,68.10
2019-02-16T08:08:30.197Z,67.90
2019-02-16T08:09:30.231Z,68.00
2019-02-16T08:10:30.176Z,67.90
2019-02-16T08:11:32.849Z,67.38
2019-02-16T08:12:30.158Z,67.45
2019-02-16T08:13:30.138Z,66.93
2019-02-16T08:14:29.130Z,67.17
2019-02-16T08:16:29.126Z,67.14
2019-02-16T08:17:30.099Z,66.83
2019-02-16T08:18:30.085Z,67.55
2019-02-16T08:19:30.072Z,67.35
2019-02-16T08:20:29.083Z,67.45
2019-02-16T08:21:30.111Z,67.42
2019-02-16T08:22:30.047Z,67.32
2019-02-16T08:23:29.039Z,67.42
2019-02-16T08:24:30.028Z,67.00
2019-02-16T08:25:30.006Z,67.11
2019-02-16T08:26:30.034Z,66.90
2019-02-16T08:27:29.995Z,67.32
2019-02-16T08:28:29.979Z,67.00
2019-02-16T08:29:28.970Z,66.59
2019-02-16T08:30:29.974Z,66.87
2019-02-16T08:31:28.955Z,66.35
2019-02-16T08:32:29.973Z,66.25
2019-02-16T08:33:29.939Z,66.25
2019-02-16T08:34:29.914Z,65.94
2019-02-16T08:35:29.903Z,65.29
2019-02-16T08:36:28.899Z,65.70
2019-02-16T08:37:29.923Z,66.12
2019-02-16T08:38:28.869Z,66.22
2019-02-16T08:39:28.859Z,66.22
2019-02-16T08:40:29.852Z,65.39
2019-02-16T08:41:28.837Z,65.39
2019-02-16T08:42:28.835Z,65.36
2019-02-16T08:43:29.823Z,64.74
2019-02-16T08:44:29.811Z,64.84
2019-02-16T08:45:29.792Z,64.53
2019-02-16T08:46:29.775Z,64.43
2019-02-16T08:47:28.775Z,64.12
2019-02-16T08:48:29.769Z,64.64
2019-02-16T08:49:28.775Z,64.74
2019-02-16T08:50:29.738Z,64.32
2019-02-16T08:51:28.729Z,64.51
2019-02-16T08:52:29.723Z,64.53
2019-02-16T08:53:29.703Z,64.30
2019-02-16T08:54:29.728Z,64.61
2019-02-16T08:55:29.695Z,64.20
2019-02-16T08:56:29.687Z,63.99
2019-02-16T08:57:29.671Z,64.30
2019-02-16T08:58:29.658Z,64.20
2019-02-16T08:59:29.641Z,64.17
2019-02-16T09:00:28.655Z,63.44
2019-02-16T09:01:29.630Z,64.17
2019-02-16T09:02:29.617Z,63.44
2019-02-16T09:03:29.603Z,62.72
2019-02-16T09:04:29.589Z,62.62
2019-02-16T09:05:29.599Z,63.21
2019-02-16T09:06:28.567Z,63.34
2019-02-16T09:07:29.550Z,62.90
2019-02-16T09:08:28.551Z,63.31
2019-02-16T09:09:28.531Z,62.79
2019-02-16T09:10:28.564Z,62.90
2019-02-16T09:11:29.509Z,62.59
2019-02-16T09:12:29.498Z,62.87
2019-02-16T09:13:29.523Z,62.55
2019-02-16T09:14:29.478Z,62.76
2019-02-16T09:15:29.467Z,61.94
2019-02-16T09:16:29.460Z,61.83
2019-02-16T09:17:29.445Z,61.63
2019-02-16T09:18:29.445Z,61.60
2019-02-16T09:19:28.427Z,62.12
2019-02-16T09:20:29.412Z,61.60
2019-02-16T09:21:28.399Z,62.12
2019-02-16T09:22:29.387Z,61.60
2019-02-16T09:23:28.393Z,61.16
2019-02-16T09:24:29.417Z,60.75
2019-02-16T09:25:29.357Z,60.95
2019-02-16T09:26:29.348Z,60.85
2019-02-16T09:27:28.343Z,60.75
2019-02-16T09:28:29.820Z,60.75
2019-02-16T09:29:29.350Z,60.44
2019-02-16T09:30:29.311Z,60.31
2019-02-16T09:31:29.291Z,60.41
2019-02-16T09:32:29.289Z,60.41
2019-02-16T09:33:28.273Z,60.51
2019-02-16T09:34:29.295Z,60.61
2019-02-16T09:35:29.257Z,60.41
2019-02-16T09:36:29.249Z,60.21
2019-02-16T09:37:28.869Z,59.89
2019-02-16T09:38:29.271Z,59.56
2019-02-16T09:39:29.211Z,59.77
2019-02-16T09:40:29.197Z,59.66
2019-02-16T09:41:29.183Z,59.35
2019-02-16T09:42:29.201Z,59.35
2019-02-16T09:43:29.173Z,59.14
2019-02-16T09:44:29.365Z,59.22
2019-02-16T09:45:29.144Z,59.33
2019-02-16T09:46:29.140Z,59.22
2019-02-16T09:47:29.121Z,58.50
2019-02-16T09:48:28.111Z,58.81
2019-02-16T09:49:29.129Z,58.50
2019-02-16T09:50:28.317Z,59.70
2019-02-16T09:51:28.072Z,59.33
2019-02-16T09:52:29.066Z,58.81
2019-02-16T09:53:29.053Z,58.26
2019-02-16T09:54:29.046Z,58.26
2019-02-16T09:55:28.080Z,58.47
2019-02-16T09:56:29.027Z,57.82
2019-02-16T09:57:29.028Z,57.82
2019-02-16T09:58:28.999Z,58.16
2019-02-16T09:59:28.999Z,57.21
2019-02-16T10:00:29.011Z,57.52
2019-02-16T10:01:29.019Z,57.42
2019-02-16T10:02:27.961Z,57.18
2019-02-16T10:03:27.943Z,57.29
2019-02-16T10:04:29.840Z,57.18
2019-02-16T10:05:28.945Z,55.95
2019-02-16T10:06:28.914Z,56.23
2019-02-16T10:07:30.503Z,56.64
2019-02-16T10:08:27.897Z,56.23
2019-02-16T10:09:28.891Z,55.72
2019-02-16T10:11:27.853Z,56.10
2019-02-16T10:12:28.854Z,55.51
2019-02-16T10:13:31.805Z,55.69
2019-02-16T10:14:28.847Z,55.49
2019-02-16T10:15:27.820Z,56.00
2019-02-16T10:16:28.805Z,55.59
2019-02-16T10:17:28.797Z,55.28
2019-02-16T10:18:28.803Z,55.28
2019-02-16T10:19:28.794Z,55.66
2019-02-16T10:20:31.307Z,55.57
2019-02-16T10:21:28.746Z,55.57
2019-02-16T10:22:28.741Z,54.85
2019-02-16T10:23:28.721Z,54.95
2019-02-16T10:24:28.750Z,54.53
2019-02-16T10:25:28.708Z,54.64
2019-02-16T10:26:28.720Z,54.43
2019-02-16T10:27:27.681Z,54.95
2019-02-16T10:28:28.674Z,54.41
2019-02-16T10:29:28.659Z,54.51
2019-02-16T10:30:29.306Z,53.89
2019-02-16T10:31:28.646Z,53.79
2019-02-16T10:32:28.679Z,53.89
2019-02-16T10:33:27.612Z,53.46
2019-02-16T10:34:28.608Z,53.38
2019-02-16T10:35:28.596Z,53.79
2019-02-16T10:36:29.262Z,53.69
2019-02-16T10:37:27.589Z,52.95
2019-02-16T10:38:28.557Z,53.15
2019-02-16T10:39:28.550Z,52.95
2019-02-16T10:40:28.530Z,52.84
2019-02-16T10:41:28.555Z,51.59
2019-02-16T10:42:28.521Z,52.00
2019-02-16T10:43:27.517Z,51.36
2019-02-16T10:44:28.507Z,51.36
2019-02-16T10:45:28.477Z,52.18
2019-02-16T10:46:28.471Z,51.67
2019-02-16T10:47:28.494Z,51.56
2019-02-16T10:48:28.446Z,51.54
2019-02-16T10:49:28.435Z,50.52
2019-02-16T10:50:28.428Z,51.23
2019-02-16T10:51:28.417Z,50.72
2019-02-16T10:52:27.412Z,50.49
2019-02-16T10:53:28.424Z,51.03
2019-02-16T10:54:29.722Z,50.59
2019-02-16T10:55:28.370Z,49.98
2019-02-16T10:56:28.356Z,50.18
2019-02-16T10:57:27.353Z,50.49
2019-02-16T10:58:31.802Z,50.09
2019-02-16T10:59:28.333Z,49.77
2019-02-16T11:00:28.312Z,49.77
2019-02-16T11:01:28.306Z,49.26
2019-02-16T11:02:28.304Z,49.67
2019-02-16T11:03:31.297Z,49.47
2019-02-16T11:04:27.281Z,49.55
2019-02-16T11:05:28.272Z,49.55
2019-02-16T11:06:28.257Z,49.55
2019-02-16T11:07:27.239Z,49.55
2019-02-16T11:08:27.228Z,49.55
2019-02-16T11:09:27.250Z,50.34
2019-02-16T11:10:28.212Z,49.73
2019-02-16T11:11:28.196Z,49.22
2019-02-16T11:12:28.189Z,49.42
2019-02-16T11:13:30.797Z,49.73
2019-02-16T11:14:28.162Z,49.63
2019-02-16T11:15:28.201Z,49.63
2019-02-16T11:16:28.157Z,48.68
2019-02-16T11:17:28.131Z,48.58
2019-02-16T11:18:28.115Z,48.48
2019-02-16T11:19:28.109Z,48.17
2019-02-16T11:20:28.100Z,48.58
2019-02-16T11:21:28.128Z,48.48
2019-02-16T11:22:28.076Z,48.68
2019-02-16T11:23:28.114Z,48.58
2019-02-16T11:24:35.848Z,48.56
2019-02-16T11:25:28.043Z,48.17
2019-02-16T11:26:28.028Z,48.58
2019-02-16T11:27:28.019Z,47.94
2019-02-16T11:28:27.013Z,47.94
2019-02-16T11:29:28.026Z,48.35
2019-02-16T11:30:27.999Z,47.85
2019-02-16T11:31:27.979Z,47.44
2019-02-16T11:32:27.966Z,47.31
2019-02-16T11:33:26.959Z,46.92
2019-02-16T11:34:27.969Z,47.11
2019-02-16T11:35:27.962Z,46.80
2019-02-16T11:36:27.916Z,46.80
2019-02-16T11:37:27.919Z,47.20
2019-02-16T11:38:27.907Z,46.90
2019-02-16T11:39:26.890Z,47.11
2019-02-16T11:40:27.896Z,47.49
2019-02-16T11:41:27.861Z,46.78
2019-02-16T11:42:27.866Z,46.98
2019-02-16T11:43:27.844Z,45.96
2019-02-16T11:44:27.782Z,46.47
2019-02-16T11:45:26.824Z,46.26
2019-02-16T11:46:27.819Z,46.34
2019-02-16T11:47:27.802Z,45.73
2019-02-16T11:48:27.790Z,45.32
2019-02-16T11:49:27.819Z,45.84
2019-02-16T11:50:27.815Z,45.43
2019-02-16T11:51:27.756Z,45.20
2019-02-16T11:52:27.744Z,45.63
2019-02-16T11:53:27.733Z,45.61
2019-02-16T11:54:26.723Z,45.31
2019-02-16T11:55:27.722Z,46.02
2019-02-16T11:56:27.729Z,45.40
2019-02-16T11:57:27.686Z,45.51
2019-02-16T11:58:26.683Z,45.10
2019-02-16T11:59:27.674Z,45.39
2019-02-16T12:00:27.656Z,45.20
2019-02-16T12:01:27.658Z,46.00
2019-02-16T12:02:27.659Z,45.18
2019-02-16T12:03:27.625Z,44.98
2019-02-16T12:04:27.610Z,44.98
2019-02-16T12:05:30.280Z,44.57
2019-02-16T12:06:27.624Z,44.87
2019-02-16T12:07:27.575Z,43.94
2019-02-16T12:08:27.563Z,43.94
2019-02-16T12:09:27.559Z,44.75
2019-02-16T12:10:27.544Z,43.94
2019-02-16T12:11:27.531Z,44.43
2019-02-16T12:12:27.554Z,44.22
2019-02-16T12:13:27.515Z,43.61
2019-02-16T12:14:27.521Z,43.61
2019-02-16T12:15:27.495Z,43.49
2019-02-16T12:16:27.477Z,42.98
2019-02-16T12:17:27.494Z,43.90
2019-02-16T12:18:27.458Z,43.08
2019-02-16T12:19:27.455Z,43.18
2019-02-16T12:20:33.482Z,42.77
2019-02-16T12:21:28.291Z,42.47
2019-02-16T12:22:27.448Z,43.18
2019-02-16T12:23:27.399Z,42.86
2019-02-16T12:24:27.397Z,41.75
2019-02-16T12:25:26.387Z,42.55
2019-02-16T12:26:27.368Z,42.45
2019-02-16T12:27:27.354Z,42.76
2019-02-16T12:28:26.395Z,41.84
2019-02-16T12:29:27.332Z,42.35
2019-02-16T12:30:27.330Z,42.25
2019-02-16T12:31:27.313Z,42.02
2019-02-16T12:32:27.304Z,42.13
2019-02-16T12:33:27.321Z,42.33
2019-02-16T12:34:27.285Z,41.31
2019-02-16T12:35:27.272Z,41.31
2019-02-16T12:36:27.255Z,41.70
2019-02-16T12:37:27.254Z,41.09
2019-02-16T12:38:27.240Z,40.48
2019-02-16T12:39:27.260Z,40.48
2019-02-16T12:40:27.214Z,40.37
2019-02-16T12:41:27.210Z,40.58
2019-02-16T12:42:27.198Z,40.86
2019-02-16T12:43:27.180Z,40.36
2019-02-16T12:44:27.209Z,40.46
2019-02-16T12:45:27.163Z,40.05
2019-02-16T12:46:27.152Z,39.95
2019-02-16T12:47:27.770Z,39.75
2019-02-16T12:48:27.142Z,39.93
2019-02-16T12:49:27.120Z,39.14
2019-02-16T12:50:27.172Z,39.22
2019-02-16T12:51:27.102Z,39.44
2019-02-16T12:52:26.090Z,39.53
2019-02-16T12:53:27.078Z,39.73
2019-02-16T12:54:26.076Z,38.51
2019-02-16T12:55:26.059Z,38.92
2019-02-16T12:56:27.074Z,38.81
2019-02-16T12:57:27.044Z,38.51
2019-02-16T12:58:26.026Z,38.79
2019-02-16T12:59:26.011Z,38.29
2019-02-16T13:00:27.009Z,38.70
2019-02-16T13:01:26.993Z,38.79
2019-02-16T13:02:27.025Z,38.18
2019-02-16T13:03:26.966Z,38.18
2019-02-16T13:04:26.960Z,37.78
2019-02-16T13:05:25.950Z,37.78
2019-02-16T13:06:26.949Z,37.56
2019-02-16T13:07:27.337Z,37.48